createdAt,value
2023-01-07T00:02:19.616Z,100772.97
2023-01-07T00:04:45.953Z,100763.81
2023-01-07T00:07:12.292Z,100765.03
2023-01-07T00:09:38.609Z,100771.06
2023-01-07T00:12:04.932Z,100769.63
2023-01-07T00:14:31.240Z,100770.50
2023-01-07T00:16:57.634Z,100768.06
2023-01-07T00:19:24.375Z,100773.31
2023-01-07T00:21:50.693Z,100771.34
2023-01-07T00:24:18.491Z,100766.03
2023-01-07T00:26:44.996Z,100759.69
2023-01-07T00:29:11.449Z,100763.00
2023-01-07T00:31:37.910Z,100767.81
2023-01-07T00:34:04.319Z,100761.97
2023-01-07T00:36:30.926Z,100764.78
2023-01-07T00:38:57.260Z,100764.78
2023-01-07T00:41:23.562Z,100753.81
2023-01-07T00:43:49.901Z,100762.00
2023-01-07T00:46:16.259Z,100763.31
2023-01-07T00:48:42.601Z,100759.09
2023-01-07T00:51:08.915Z,100758.75
2023-01-07T00:53:35.254Z,100751.87
2023-01-07T00:56:01.578Z,100746.34
2023-01-07T00:58:28.225Z,100753.19
2023-01-07T01:00:54.663Z,100755.28
2023-01-07T01:03:20.988Z,100766.44
2023-01-07T01:05:47.336Z,100751.03
2023-01-07T01:08:13.652Z,100754.56
2023-01-07T01:10:40.001Z,100766.56
2023-01-07T01:13:06.309Z,100758.41
2023-01-07T01:15:32.613Z,100760.22
2023-01-07T01:17:58.991Z,100759.09
2023-01-07T01:20:25.371Z,100761.88
2023-01-07T01:22:51.705Z,100766.81
2023-01-07T01:25:18.041Z,100764.38
2023-01-07T01:27:44.358Z,100767.16
2023-01-07T01:30:10.672Z,100757.78
2023-01-07T01:32:36.983Z,100749.59
2023-01-07T01:35:03.336Z,100762.97
2023-01-07T01:37:29.652Z,100760.88
2023-01-07T01:39:55.959Z,100759.28
2023-01-07T01:42:22.288Z,100753.03
2023-01-07T01:44:48.669Z,100753.84
2023-01-07T01:47:14.973Z,100764.78
2023-01-07T01:49:41.307Z,100754.34
2023-01-07T01:52:07.623Z,100757.59
2023-01-07T01:54:33.954Z,100753.84
2023-01-07T01:57:00.279Z,100750.41
2023-01-07T01:59:26.617Z,100749.59
2023-01-07T02:01:53.700Z,100750.78
2023-01-07T02:04:20.091Z,100747.31
2023-01-07T02:06:46.470Z,100748.66
2023-01-07T02:09:12.815Z,100743.03
2023-01-07T02:11:39.120Z,100742.09
2023-01-07T02:14:05.457Z,100741.22
2023-01-07T02:16:31.859Z,100742.37
2023-01-07T02:18:58.199Z,100743.03
2023-01-07T02:21:24.489Z,100738.13
2023-01-07T02:23:50.814Z,100734.22
2023-01-07T02:26:17.152Z,100734.22
2023-01-07T02:28:43.484Z,100729.41
2023-01-07T02:31:10.000Z,100725.81
2023-01-07T02:33:36.392Z,100726.84
2023-01-07T02:36:02.722Z,100724.75
2023-01-07T02:38:29.050Z,100724.22
2023-01-07T02:40:55.363Z,100717.88
2023-01-07T02:43:21.683Z,100719.31
2023-01-07T02:45:48.203Z,100709.59
2023-01-07T02:48:14.556Z,100706.03
2023-01-07T02:50:40.871Z,100709.34
2023-01-07T02:53:07.212Z,100706.72
2023-01-07T02:55:33.515Z,100706.06
2023-01-07T02:57:59.839Z,100704.91
2023-01-07T03:00:26.145Z,100708.69
2023-01-07T03:02:52.485Z,100702.78
2023-01-07T03:05:18.791Z,100704.31
2023-01-07T03:07:45.119Z,100710.38
2023-01-07T03:10:11.812Z,100709.22
2023-01-07T03:12:38.141Z,100704.47
2023-01-07T03:15:04.444Z,100715.44
2023-01-07T03:17:30.762Z,100705.88
2023-01-07T03:19:57.096Z,100701.66
2023-01-07T03:22:23.439Z,100699.66
2023-01-07T03:24:49.770Z,100701.56
2023-01-07T03:27:16.121Z,100701.50
2023-01-07T03:29:42.433Z,100705.47
2023-01-07T03:32:08.774Z,100705.19
2023-01-07T03:34:35.091Z,100707.63
2023-01-07T03:37:01.427Z,100716.13
2023-01-07T03:39:27.758Z,100708.28
2023-01-07T03:42:13.004Z,100714.06
2023-01-07T03:44:39.353Z,100707.78
2023-01-07T03:47:05.671Z,100710.91
2023-01-07T03:49:32.044Z,100708.88
2023-01-07T03:51:58.349Z,100705.94
2023-01-07T03:54:24.717Z,100705.09
2023-01-07T03:56:51.035Z,100703.47
2023-01-07T03:59:17.374Z,100704.84
2023-01-07T04:01:43.877Z,100706.84
2023-01-07T04:04:10.297Z,100705.37
2023-01-07T04:06:36.632Z,100702.06
2023-01-07T04:09:03.012Z,100687.44
2023-01-07T04:11:29.373Z,100700.38
2023-01-07T04:13:57.248Z,100688.91
2023-01-07T04:16:23.643Z,100695.63
2023-01-07T04:18:49.994Z,100696.88
2023-01-07T04:21:16.316Z,100695.81
2023-01-07T04:23:42.651Z,100692.47
2023-01-07T04:26:09.003Z,100694.72
2023-01-07T04:28:35.351Z,100688.34
2023-01-07T04:31:01.763Z,100689.09
2023-01-07T04:33:28.140Z,100679.12
2023-01-07T04:35:54.523Z,100676.69
2023-01-07T04:38:20.871Z,100677.78
2023-01-07T04:40:47.205Z,100674.19
2023-01-07T04:43:13.516Z,100674.75
2023-01-07T04:45:39.832Z,100668.53
2023-01-07T04:48:06.120Z,100676.47
2023-01-07T04:50:32.517Z,100673.06
2023-01-07T04:52:58.848Z,100683.53
2023-01-07T04:55:25.206Z,100671.69
2023-01-07T04:57:51.519Z,100673.50
2023-01-07T05:00:17.883Z,100678.91
2023-01-07T05:02:44.195Z,100679.19
2023-01-07T05:05:10.519Z,100677.44
2023-01-07T05:07:36.880Z,100682.50
2023-01-07T05:10:03.239Z,100677.22
2023-01-07T05:12:29.602Z,100676.59
2023-01-07T05:14:55.902Z,100677.69
2023-01-07T05:17:22.238Z,100672.94
2023-01-07T05:19:48.585Z,100673.09
2023-01-07T05:22:14.904Z,100665.69
2023-01-07T05:24:41.259Z,100667.97
2023-01-07T05:27:07.580Z,100661.69
2023-01-07T05:29:33.879Z,100655.09
2023-01-07T05:32:00.192Z,100660.31
2023-01-07T05:34:26.498Z,100662.78
2023-01-07T05:36:52.909Z,100649.75
2023-01-07T05:39:19.246Z,100653.44
2023-01-07T05:41:45.592Z,100654.97
2023-01-07T05:44:11.929Z,100658.56
2023-01-07T05:46:38.314Z,100651.19
2023-01-07T05:49:04.625Z,100663.59
2023-01-07T05:51:30.929Z,100658.50
2023-01-07T05:53:57.239Z,100656.94
2023-01-07T05:56:23.547Z,100654.81
2023-01-07T05:58:49.852Z,100660.91
2023-01-07T06:01:16.212Z,100662.62
2023-01-07T06:03:42.780Z,100662.28
2023-01-07T06:06:09.137Z,100666.38
2023-01-07T06:08:35.541Z,100659.03
2023-01-07T06:11:01.862Z,100664.16
2023-01-07T06:13:28.636Z,100661.03
2023-01-07T06:15:54.980Z,100661.38
2023-01-07T06:18:21.296Z,100659.88
2023-01-07T06:20:47.601Z,100660.41
2023-01-07T06:23:13.993Z,100662.22
2023-01-07T06:25:40.289Z,100659.06
2023-01-07T06:28:06.621Z,100655.28
2023-01-07T06:30:32.940Z,100669.69
2023-01-07T06:32:59.281Z,100658.69
2023-01-07T06:35:25.586Z,100656.69
2023-01-07T06:37:51.919Z,100648.41
2023-01-07T06:40:18.353Z,100657.28
2023-01-07T06:42:44.680Z,100661.00
2023-01-07T06:45:11.001Z,100661.44
2023-01-07T06:47:37.296Z,100660.37
2023-01-07T06:50:03.630Z,100664.94
2023-01-07T06:52:30.022Z,100662.97
2023-01-07T06:54:56.375Z,100652.00
2023-01-07T06:57:22.690Z,100666.72
2023-01-07T06:59:49.083Z,100664.25
2023-01-07T07:02:15.426Z,100660.59
2023-01-07T07:04:41.758Z,100661.63
2023-01-07T07:07:08.074Z,100663.44
2023-01-07T07:09:34.405Z,100662.97
2023-01-07T07:12:00.715Z,100663.38
2023-01-07T07:14:27.039Z,100668.75
2023-01-07T07:16:53.422Z,100666.41
2023-01-07T07:19:19.742Z,100668.06
2023-01-07T07:21:46.075Z,100673.00
2023-01-07T07:24:12.396Z,100676.72
2023-01-07T07:26:38.727Z,100678.16
2023-01-07T07:29:05.054Z,100677.03
2023-01-07T07:31:31.446Z,100681.63
2023-01-07T07:33:57.870Z,100676.22
2023-01-07T07:36:24.202Z,100677.34
2023-01-07T07:38:50.523Z,100673.81
2023-01-07T07:41:16.962Z,100672.56
2023-01-07T07:43:43.290Z,100675.94
2023-01-07T07:46:09.682Z,100676.47
2023-01-07T07:48:36.021Z,100660.72
2023-01-07T07:51:02.359Z,100662.09
2023-01-07T07:53:28.746Z,100659.50
2023-01-07T07:55:55.097Z,100665.41
2023-01-07T07:58:21.464Z,100660.19
2023-01-07T08:00:47.797Z,100656.72
2023-01-07T08:03:14.144Z,100661.47
2023-01-07T08:05:41.316Z,100659.72
2023-01-07T08:08:09.465Z,100655.91
2023-01-07T08:10:35.785Z,100649.56
2023-01-07T08:13:02.175Z,100657.09
2023-01-07T08:15:28.474Z,100655.00
2023-01-07T08:17:54.774Z,100658.16
2023-01-07T08:20:21.090Z,100652.09
2023-01-07T08:22:47.429Z,100649.78
2023-01-07T08:25:13.729Z,100655.53
2023-01-07T08:27:40.139Z,100656.41
2023-01-07T08:30:06.444Z,100662.44
2023-01-07T08:32:32.759Z,100667.69
2023-01-07T08:34:59.140Z,100665.22
2023-01-07T08:37:25.445Z,100658.19
2023-01-07T08:39:51.799Z,100661.16
2023-01-07T08:42:18.252Z,100658.81
2023-01-07T08:44:44.688Z,100668.78
2023-01-07T08:47:11.007Z,100663.72
2023-01-07T08:49:37.359Z,100667.53
2023-01-07T08:52:03.748Z,100663.09
2023-01-07T08:54:30.077Z,100657.50
2023-01-07T08:56:56.400Z,100668.66
2023-01-07T08:59:22.715Z,100654.06
2023-01-07T09:01:49.160Z,100646.56
2023-01-07T09:04:15.541Z,100654.75
2023-01-07T09:06:41.877Z,100644.78
2023-01-07T09:09:08.278Z,100644.28
2023-01-07T09:11:34.589Z,100654.44
2023-01-07T09:14:00.905Z,100643.50
2023-01-07T09:16:27.229Z,100635.62
2023-01-07T09:18:53.549Z,100639.91
2023-01-07T09:21:19.898Z,100641.38
2023-01-07T09:23:46.298Z,100639.72
2023-01-07T09:26:12.596Z,100633.00
2023-01-07T09:28:38.908Z,100632.84
2023-01-07T09:31:05.627Z,100625.16
2023-01-07T09:33:31.958Z,100631.25
2023-01-07T09:35:58.312Z,100625.50
2023-01-07T09:38:24.647Z,100623.06
2023-01-07T09:40:51.039Z,100624.34
2023-01-07T09:43:17.864Z,100613.50
2023-01-07T09:45:44.253Z,100620.59
2023-01-07T09:48:10.629Z,100620.25
2023-01-07T09:50:36.933Z,100614.50
2023-01-07T09:53:03.238Z,100611.56
2023-01-07T09:55:29.651Z,100609.94
2023-01-07T09:57:55.948Z,100606.50
2023-01-07T10:00:22.297Z,100602.72
2023-01-07T10:02:48.718Z,100599.78
2023-01-07T10:05:15.339Z,100600.25
2023-01-07T10:07:41.648Z,100602.41
2023-01-07T10:10:07.991Z,100594.84
2023-01-07T10:12:34.338Z,100588.47
2023-01-07T10:15:00.675Z,100584.50
2023-01-07T10:17:27.222Z,100587.78
2023-01-07T10:19:53.560Z,100583.34
2023-01-07T10:22:19.963Z,100579.25
2023-01-07T10:24:46.315Z,100571.69
2023-01-07T10:27:12.664Z,100579.94
2023-01-07T10:29:38.977Z,100569.56
2023-01-07T10:32:05.272Z,100570.53
2023-01-07T10:34:31.598Z,100563.94
2023-01-07T10:36:57.915Z,100567.91
2023-01-07T10:39:24.359Z,100559.53
2023-01-07T10:41:50.671Z,100560.31
2023-01-07T10:44:16.996Z,100552.97
2023-01-07T10:46:43.392Z,100558.00
2023-01-07T10:49:09.734Z,100551.97
2023-01-07T10:51:36.061Z,100557.16
2023-01-07T10:54:02.391Z,100546.41
2023-01-07T10:56:28.812Z,100538.97
2023-01-07T10:58:55.113Z,100532.59
2023-01-07T11:01:21.526Z,100526.75
2023-01-07T11:03:47.877Z,100524.91
2023-01-07T11:06:14.181Z,100510.66
2023-01-07T11:08:40.540Z,100511.09
2023-01-07T11:11:06.858Z,100498.69
2023-01-07T11:13:33.158Z,100491.97
2023-01-07T11:15:59.640Z,100495.50
2023-01-07T11:18:25.977Z,100491.06
2023-01-07T11:20:52.346Z,100480.28
2023-01-07T11:23:19.678Z,100477.47
2023-01-07T11:25:46.018Z,100471.25
2023-01-07T11:28:12.353Z,100472.28
2023-01-07T11:30:38.658Z,100468.75
2023-01-07T11:33:04.951Z,100466.63
2023-01-07T11:35:31.274Z,100463.97
2023-01-07T11:37:57.739Z,100463.53
2023-01-07T11:40:24.055Z,100449.56
2023-01-07T11:42:50.425Z,100443.66
2023-01-07T11:45:16.780Z,100440.63
2023-01-07T11:47:43.195Z,100435.34
2023-01-07T11:50:09.646Z,100432.28
2023-01-07T11:52:35.978Z,100435.25
2023-01-07T11:55:02.289Z,100438.06
2023-01-07T11:57:30.100Z,100433.59
2023-01-07T11:59:56.413Z,100435.19
2023-01-07T12:02:22.733Z,100439.16
2023-01-07T12:04:49.096Z,100434.53
2023-01-07T12:07:15.421Z,100441.13
2023-01-07T12:09:41.785Z,100432.12
2023-01-07T12:12:28.112Z,100435.41
2023-01-07T12:14:54.454Z,100434.53
2023-01-07T12:17:20.777Z,100424.88
2023-01-07T12:19:47.111Z,100418.31
2023-01-07T12:22:13.459Z,100417.72
2023-01-07T12:24:39.765Z,100421.38
2023-01-07T12:27:06.084Z,100416.00
2023-01-07T12:29:36.306Z,100418.06
2023-01-07T12:32:03.469Z,100411.91
2023-01-07T12:34:29.803Z,100399.69
2023-01-07T12:36:56.303Z,100403.66
2023-01-07T12:39:22.655Z,100401.31
2023-01-07T12:41:48.992Z,100398.50
2023-01-07T12:44:15.302Z,100389.87
2023-01-07T12:46:41.801Z,100393.28
2023-01-07T12:49:08.986Z,100389.91
2023-01-07T12:51:35.306Z,100386.63
2023-01-07T12:54:01.666Z,100378.53
2023-01-07T12:56:28.008Z,100382.97
2023-01-07T12:58:54.345Z,100371.19
2023-01-07T13:01:21.895Z,100368.47
2023-01-07T13:03:48.251Z,100370.28
2023-01-07T13:06:14.569Z,100369.34
2023-01-07T13:08:40.891Z,100358.84
2023-01-07T13:11:07.195Z,100358.69
2023-01-07T13:13:33.515Z,100352.44
2023-01-07T13:16:00.328Z,100350.72
2023-01-07T13:18:26.704Z,100362.81
2023-01-07T13:20:53.305Z,100358.53
2023-01-07T13:23:19.635Z,100350.06
2023-01-07T13:25:45.945Z,100348.22
2023-01-07T13:28:12.431Z,100352.66
2023-01-07T13:30:38.766Z,100351.97
2023-01-07T13:33:05.237Z,100345.94
2023-01-07T13:35:31.564Z,100344.00
2023-01-07T13:37:57.953Z,100356.31
2023-01-07T13:40:24.311Z,100343.44
2023-01-07T13:42:50.656Z,100354.81
2023-01-07T13:45:16.953Z,100342.09
2023-01-07T13:47:43.310Z,100344.66
2023-01-07T13:50:09.767Z,100346.63
2023-01-07T13:52:36.186Z,100348.53
2023-01-07T13:55:02.595Z,100346.25
2023-01-07T13:57:28.960Z,100341.84
2023-01-07T13:59:56.017Z,100334.59
2023-01-07T14:02:26.206Z,100339.50
2023-01-07T14:04:52.667Z,100343.62
2023-01-07T14:07:19.002Z,100335.78
2023-01-07T14:09:45.327Z,100324.91
2023-01-07T14:12:11.657Z,100322.19
2023-01-07T14:14:38.376Z,100327.38
2023-01-07T14:17:04.696Z,100327.59
2023-01-07T14:19:31.018Z,100325.72
2023-01-07T14:21:57.326Z,100318.03
2023-01-07T14:24:23.669Z,100323.84
2023-01-07T14:26:49.971Z,100315.47
2023-01-07T14:29:16.277Z,100310.00
2023-01-07T14:31:42.573Z,100316.41
2023-01-07T14:34:09.060Z,100318.19
2023-01-07T14:36:35.372Z,100308.03
2023-01-07T14:39:01.789Z,100306.66
2023-01-07T14:41:28.149Z,100308.31
2023-01-07T14:43:54.478Z,100293.94
2023-01-07T14:46:20.859Z,100291.97
2023-01-07T14:48:48.177Z,100300.69
2023-01-07T14:51:14.550Z,100288.91
2023-01-07T14:53:43.099Z,100284.16
2023-01-07T14:56:09.449Z,100288.63
2023-01-07T14:58:35.758Z,100286.59
2023-01-07T15:01:02.168Z,100292.50
2023-01-07T15:03:28.498Z,100282.84
2023-01-07T15:05:54.810Z,100274.75
2023-01-07T15:08:39.907Z,100277.69
2023-01-07T15:11:24.881Z,100282.13
2023-01-07T15:14:09.753Z,100271.84
2023-01-07T15:16:36.131Z,100270.47
2023-01-07T15:19:02.492Z,100270.50
2023-01-07T15:21:28.834Z,100270.22
2023-01-07T15:23:55.164Z,100273.84
2023-01-07T15:26:21.507Z,100271.09
2023-01-07T15:28:47.817Z,100268.28
2023-01-07T15:31:14.164Z,100277.81
2023-01-07T15:33:40.508Z,100277.66
2023-01-07T15:36:06.830Z,100270.97
2023-01-07T15:38:33.148Z,100274.59
2023-01-07T15:40:59.466Z,100277.69
2023-01-07T15:43:25.864Z,100266.53
2023-01-07T15:45:52.177Z,100263.09
2023-01-07T15:48:18.530Z,100267.03
2023-01-07T15:50:44.857Z,100267.69
2023-01-07T15:53:11.167Z,100267.22
2023-01-07T15:55:37.521Z,100268.88
2023-01-07T15:58:03.881Z,100262.97
2023-01-07T16:00:30.263Z,100261.25
2023-01-07T16:02:57.503Z,100261.72
2023-01-07T16:05:26.334Z,100264.03
2023-01-07T16:07:52.699Z,100266.97
2023-01-07T16:10:19.014Z,100268.63
2023-01-07T16:12:45.341Z,100253.41
2023-01-07T16:15:11.632Z,100253.28
2023-01-07T16:17:37.942Z,100249.00
2023-01-07T16:20:04.300Z,100244.94
2023-01-07T16:22:30.645Z,100247.72
2023-01-07T16:24:57.039Z,100246.09
2023-01-07T16:27:23.348Z,100242.47
2023-01-07T16:29:49.719Z,100239.41
2023-01-07T16:32:17.216Z,100238.75
2023-01-07T16:34:44.820Z,100231.72
2023-01-07T16:37:11.164Z,100225.34
2023-01-07T16:39:37.482Z,100231.72
2023-01-07T16:42:23.622Z,100215.53
2023-01-07T16:44:49.988Z,100220.44
2023-01-07T16:47:17.878Z,100210.97
2023-01-07T16:49:44.217Z,100209.81
2023-01-07T16:52:10.543Z,100209.00
2023-01-07T16:54:37.489Z,100208.34
2023-01-07T16:57:04.265Z,100211.94
2023-01-07T16:59:30.664Z,100204.75
2023-01-07T17:01:57.104Z,100208.53
2023-01-07T17:04:23.490Z,100209.63
2023-01-07T17:06:49.781Z,100207.38
2023-01-07T17:09:16.101Z,100203.94
2023-01-07T17:11:42.471Z,100195.44
2023-01-07T17:14:08.788Z,100198.03
2023-01-07T17:16:35.186Z,100194.78
2023-01-07T17:19:01.567Z,100182.84
2023-01-07T17:21:27.865Z,100184.62
2023-01-07T17:23:54.198Z,100173.50
2023-01-07T17:26:20.569Z,100172.22
2023-01-07T17:28:46.915Z,100169.91
2023-01-07T17:31:13.336Z,100170.72
2023-01-07T17:33:39.674Z,100173.84
2023-01-07T17:36:06.003Z,100169.59
2023-01-07T17:38:32.325Z,100172.37
2023-01-07T17:40:58.669Z,100161.56
2023-01-07T17:43:34.204Z,100172.37
2023-01-07T17:46:01.394Z,100159.59
2023-01-07T17:48:27.785Z,100168.91
2023-01-07T17:50:57.154Z,100173.81
2023-01-07T17:53:23.504Z,100157.47
2023-01-07T17:55:49.850Z,100159.91
2023-01-07T17:58:16.160Z,100162.03
2023-01-07T18:00:42.569Z,100171.00
2023-01-07T18:03:08.948Z,100165.66
2023-01-07T18:05:35.308Z,100157.31
2023-01-07T18:08:01.644Z,100165.59
2023-01-07T18:10:27.955Z,100166.16
2023-01-07T18:12:54.319Z,100172.16
2023-01-07T18:15:20.664Z,100169.37
2023-01-07T18:17:47.015Z,100170.62
2023-01-07T18:20:13.606Z,100158.38
2023-01-07T18:22:39.910Z,100159.13
2023-01-07T18:25:06.215Z,100144.47
2023-01-07T18:27:32.545Z,100156.34
2023-01-07T18:29:58.839Z,100153.88
2023-01-07T18:32:25.162Z,100157.97
2023-01-07T18:34:51.482Z,100151.12
2023-01-07T18:37:18.082Z,100150.78
2023-01-07T18:39:44.405Z,100155.78
2023-01-07T18:42:10.812Z,100151.63
2023-01-07T18:44:37.160Z,100145.25
2023-01-07T18:47:03.483Z,100141.59
2023-01-07T18:49:29.894Z,100140.62
2023-01-07T18:51:56.294Z,100144.94
2023-01-07T18:54:22.622Z,100149.88
2023-01-07T18:56:48.943Z,100148.25
2023-01-07T18:59:15.574Z,100137.44
2023-01-07T19:01:42.143Z,100143.47
2023-01-07T19:04:08.662Z,100132.91
2023-01-07T19:06:35.058Z,100139.56
2023-01-07T19:09:05.030Z,100140.81
2023-01-07T19:11:31.679Z,100147.97
2023-01-07T19:13:58.003Z,100143.59
2023-01-07T19:16:24.401Z,100134.97
2023-01-07T19:18:52.499Z,100137.25
2023-01-07T19:21:18.944Z,100137.12
2023-01-07T19:23:45.256Z,100128.44
2023-01-07T19:26:11.598Z,100137.66
2023-01-07T19:28:37.974Z,100138.38
2023-01-07T19:31:04.293Z,100130.19
2023-01-07T19:33:30.605Z,100136.94
2023-01-07T19:36:00.012Z,100140.09
2023-01-07T19:38:27.627Z,100137.03
2023-01-07T19:40:53.977Z,100151.56
2023-01-07T19:43:20.301Z,100137.31
2023-01-07T19:45:46.625Z,100143.91
2023-01-07T19:48:12.953Z,100145.22
2023-01-07T19:50:39.331Z,100143.47
2023-01-07T19:53:05.669Z,100140.97
2023-01-07T19:55:31.989Z,100139.69
2023-01-07T19:57:58.634Z,100132.81
2023-01-07T20:00:25.053Z,100126.06
2023-01-07T20:02:51.533Z,100130.34
2023-01-07T20:05:17.907Z,100110.59
2023-01-07T20:07:44.225Z,100118.87
2023-01-07T20:10:10.622Z,100122.31
2023-01-07T20:12:36.947Z,100123.53
2023-01-07T20:15:03.587Z,100121.44
2023-01-07T20:17:29.952Z,100102.75
2023-01-07T20:19:56.292Z,100099.44
2023-01-07T20:22:25.989Z,100097.69
2023-01-07T20:24:52.345Z,100087.97
2023-01-07T20:27:18.661Z,100096.28
2023-01-07T20:29:45.869Z,100096.50
2023-01-07T20:32:12.170Z,100095.50
2023-01-07T20:34:38.485Z,100087.22
2023-01-07T20:37:04.828Z,100081.84
2023-01-07T20:39:31.271Z,100085.56
2023-01-07T20:41:57.603Z,100081.66
2023-01-07T20:44:23.908Z,100082.88
2023-01-07T20:46:50.284Z,100080.53
2023-01-07T20:49:16.707Z,100071.53
2023-01-07T20:51:43.012Z,100066.84
2023-01-07T20:54:09.419Z,100071.53
2023-01-07T20:56:36.358Z,100074.47
2023-01-07T20:59:02.768Z,100075.28
2023-01-07T21:01:29.802Z,100086.66
2023-01-07T21:03:56.265Z,100069.47
2023-01-07T21:06:22.626Z,100070.28
2023-01-07T21:08:48.960Z,100064.50
2023-01-07T21:11:15.355Z,100059.28
2023-01-07T21:13:41.753Z,100062.25
2023-01-07T21:16:08.158Z,100057.78
2023-01-07T21:18:34.571Z,100059.94
2023-01-07T21:21:00.897Z,100050.00
2023-01-07T21:23:27.269Z,100047.25
2023-01-07T21:25:53.606Z,100048.28
2023-01-07T21:28:19.917Z,100045.09
2023-01-07T21:30:46.629Z,100027.81
2023-01-07T21:33:13.019Z,100028.25
2023-01-07T21:35:39.325Z,100030.19
2023-01-07T21:38:06.049Z,100018.72
2023-01-07T21:40:32.364Z,100024.78
2023-01-07T21:42:58.750Z,100015.91
2023-01-07T21:45:25.063Z,100022.47
2023-01-07T21:47:51.386Z,100023.81
2023-01-07T21:50:17.745Z,100020.22
2023-01-07T21:52:44.174Z,100021.16
2023-01-07T21:55:10.509Z,100019.13
2023-01-07T21:57:36.855Z,100015.34
2023-01-07T22:00:03.158Z,100014.19
2023-01-07T22:02:29.572Z,100014.59
2023-01-07T22:04:55.940Z,100008.12
2023-01-07T22:07:22.261Z,100003.50
2023-01-07T22:09:49.223Z,99994.37
2023-01-07T22:12:15.564Z,99996.78
2023-01-07T22:14:41.919Z,100000.97
2023-01-07T22:17:08.218Z,100003.59
2023-01-07T22:19:34.562Z,100000.03
2023-01-07T22:22:01.789Z,100008.38
2023-01-07T22:24:28.208Z,100008.03
2023-01-07T22:26:55.295Z,99999.47
2023-01-07T22:29:21.617Z,99995.56
2023-01-07T22:31:50.303Z,99990.38
2023-01-07T22:34:16.669Z,99997.50
2023-01-07T22:36:42.999Z,99999.47
2023-01-07T22:39:10.332Z,99988.75
2023-01-07T22:41:36.683Z,99987.59
2023-01-07T22:44:02.991Z,99982.41
2023-01-07T22:46:29.377Z,99981.44
2023-01-07T22:48:55.710Z,99988.63
2023-01-07T22:51:22.111Z,99975.72
2023-01-07T22:53:48.493Z,99978.00
2023-01-07T22:56:14.804Z,99973.59
2023-01-07T22:58:41.182Z,99975.28
2023-01-07T23:01:07.509Z,99965.03
2023-01-07T23:03:33.969Z,99961.31
2023-01-07T23:06:00.385Z,99944.50
2023-01-07T23:08:26.694Z,99942.41
2023-01-07T23:10:53.076Z,99950.56
2023-01-07T23:13:19.390Z,99957.88
2023-01-07T23:15:45.721Z,99957.78
2023-01-07T23:18:12.384Z,99956.25
2023-01-07T23:20:38.713Z,99955.00
2023-01-07T23:23:05.021Z,99953.69
2023-01-07T23:25:31.485Z,99958.25
2023-01-07T23:27:57.929Z,99959.06
2023-01-07T23:30:24.261Z,99951.91
2023-01-07T23:32:50.594Z,99950.13
2023-01-07T23:35:16.919Z,99947.19
2023-01-07T23:37:43.237Z,99954.87
2023-01-07T23:40:09.562Z,99948.66
2023-01-07T23:42:35.900Z,99940.34
2023-01-07T23:45:02.310Z,99933.53
2023-01-07T23:47:28.643Z,99926.03
2023-01-07T23:49:54.973Z,99925.06
2023-01-07T23:52:21.297Z,99925.06
2023-01-07T23:54:47.706Z,99918.72
2023-01-07T23:57:14.175Z,99914.81
2023-01-07T23:59:40.523Z,99910.88
